createdAt,value
2019-03-01T00:00:16.409Z,15.53
2019-03-01T00:02:47.561Z,14.60
2019-03-01T00:05:20.079Z,14.27
2019-03-01T00:08:10.162Z,14.20
2019-03-01T00:10:59.240Z,15.83
2019-03-01T00:13:43.572Z,15.17
2019-03-01T00:16:16.100Z,14.83
2019-03-01T00:18:51.306Z,14.23
2019-03-01T00:21:32.818Z,14.17
2019-03-01T00:24:05.332Z,14.83
2019-03-01T00:26:43.491Z,14.10
2019-03-01T00:29:34.427Z,13.63
2019-03-01T00:32:24.756Z,15.10
2019-03-01T00:35:03.848Z,14.20
2019-03-01T00:37:54.292Z,13.80
2019-03-01T00:40:35.689Z,14.33
2019-03-01T00:43:10.931Z,13.93
2019-03-01T00:45:40.362Z,14.10
2019-03-01T00:48:10.406Z,14.53
2019-03-01T00:50:40.624Z,14.35
2019-03-01T00:53:10.784Z,15.03
2019-03-01T00:55:40.845Z,15.77
2019-03-01T00:58:10.916Z,15.47
2019-03-01T01:00:44.320Z,14.07
2019-03-01T01:03:13.822Z,14.90
2019-03-01T01:05:43.348Z,14.93
2019-03-01T01:08:12.816Z,14.50
2019-03-01T01:10:42.926Z,15.00
2019-03-01T01:13:12.366Z,15.43
2019-03-01T01:15:42.016Z,14.90
2019-03-01T01:18:12.175Z,13.60
2019-03-01T01:20:42.202Z,14.60
2019-03-01T01:23:12.344Z,15.47
2019-03-01T01:25:44.970Z,16.03
2019-03-01T01:28:14.436Z,15.80
2019-03-01T01:30:43.938Z,15.10
2019-03-01T01:33:13.368Z,15.63
2019-03-01T01:35:43.008Z,14.80
2019-03-01T01:38:13.120Z,14.80
2019-03-01T01:40:43.253Z,16.20
2019-03-01T01:43:13.345Z,15.17
2019-03-01T01:45:43.560Z,14.83
2019-03-01T01:48:13.670Z,14.68
2019-03-01T01:50:43.881Z,15.27
2019-03-01T01:53:13.908Z,14.63
2019-03-01T01:55:44.064Z,15.53
2019-03-01T01:58:14.161Z,14.40
2019-03-01T02:00:44.483Z,14.53
2019-03-01T02:03:14.474Z,16.07
2019-03-01T02:05:44.698Z,16.90
2019-03-01T02:08:15.205Z,16.57
2019-03-01T02:10:44.872Z,17.90
2019-03-01T02:13:15.016Z,16.70
2019-03-01T02:15:45.165Z,18.37
2019-03-01T02:18:15.672Z,17.63
2019-03-01T02:20:45.428Z,17.65
2019-03-01T02:23:15.506Z,17.00
2019-03-01T02:25:45.665Z,17.80
2019-03-01T02:28:15.748Z,17.50
2019-03-01T02:30:52.161Z,18.63
2019-03-01T02:33:21.591Z,18.33
2019-03-01T02:35:51.080Z,19.00
2019-03-01T02:38:20.534Z,18.33
2019-03-01T02:40:49.958Z,18.50
2019-03-01T02:43:19.415Z,17.13
2019-03-01T02:45:48.843Z,18.37
2019-03-01T02:48:18.272Z,18.27
2019-03-01T02:50:47.702Z,19.07
2019-03-01T02:53:17.226Z,17.53
2019-03-01T02:55:47.374Z,18.43
2019-03-01T02:58:17.530Z,17.87
2019-03-01T03:00:47.588Z,18.47
2019-03-01T03:03:18.078Z,17.90
2019-03-01T03:05:55.316Z,17.60
2019-03-01T03:08:24.867Z,18.37
2019-03-01T03:10:54.321Z,19.97
2019-03-01T03:13:23.751Z,18.60
2019-03-01T03:15:54.320Z,18.00
2019-03-01T03:18:23.744Z,18.57
2019-03-01T03:20:53.112Z,20.03
2019-03-01T03:23:22.612Z,18.53
2019-03-01T03:25:52.060Z,19.80
2019-03-01T03:28:21.489Z,19.30
2019-03-01T03:30:50.923Z,18.93
2019-03-01T03:33:20.444Z,19.30
2019-03-01T03:35:49.881Z,19.50
2019-03-01T03:38:19.554Z,19.90
2019-03-01T03:40:49.847Z,20.82
2019-03-01T03:43:22.565Z,20.23
2019-03-01T03:45:50.981Z,21.53
2019-03-01T03:48:20.392Z,20.47
2019-03-01T03:50:50.261Z,22.03
2019-03-01T03:53:20.347Z,20.73
2019-03-01T03:55:50.645Z,21.40
2019-03-01T03:58:20.752Z,19.83
2019-03-01T04:00:51.065Z,21.05
2019-03-01T04:03:21.115Z,21.30
2019-03-01T04:05:51.313Z,21.15
2019-03-01T04:08:21.333Z,19.13
2019-03-01T04:10:51.387Z,20.97
2019-03-01T04:13:21.944Z,18.30
2019-03-01T04:15:51.677Z,18.27
2019-03-01T04:18:21.721Z,16.77
2019-03-01T04:20:51.941Z,14.30
2019-03-01T04:23:22.031Z,15.55
2019-03-01T04:25:52.196Z,13.47
2019-03-01T04:28:22.286Z,13.53
2019-03-01T04:30:52.587Z,13.32
2019-03-01T04:33:22.497Z,12.93
2019-03-01T04:35:52.645Z,14.47
2019-03-01T04:38:22.733Z,13.47
2019-03-01T04:40:53.032Z,14.03
2019-03-01T04:43:23.080Z,15.43
2019-03-01T04:45:53.662Z,14.25
2019-03-01T04:48:23.307Z,14.10
2019-03-01T04:50:53.453Z,14.07
2019-03-01T04:53:23.561Z,14.23
2019-03-01T04:55:53.767Z,13.60
2019-03-01T04:58:23.782Z,14.70
2019-03-01T05:00:53.933Z,14.90
2019-03-01T05:03:24.223Z,14.35
2019-03-01T05:05:54.269Z,13.07
2019-03-01T05:08:24.349Z,12.30
2019-03-01T05:10:54.503Z,12.57
2019-03-01T05:13:23.965Z,12.10
2019-03-01T05:15:53.398Z,12.93
2019-03-01T05:18:22.862Z,11.87
2019-03-01T05:20:53.356Z,11.50
2019-03-01T05:23:22.791Z,11.67
2019-03-01T05:25:52.162Z,11.60
2019-03-01T05:28:21.632Z,10.30
2019-03-01T05:30:51.019Z,9.73
2019-03-01T05:33:20.403Z,9.63
2019-03-01T05:35:49.846Z,8.80
2019-03-01T05:38:22.190Z,7.87
2019-03-01T05:40:51.841Z,7.30
2019-03-01T05:43:21.280Z,7.57
2019-03-01T05:45:50.716Z,8.50
2019-03-01T05:48:20.163Z,8.07
2019-03-01T05:50:49.592Z,8.03
2019-03-01T05:53:19.040Z,8.77
2019-03-01T05:55:48.589Z,10.40
2019-03-01T05:58:29.613Z,9.87
2019-03-01T06:01:03.422Z,10.23
2019-03-01T06:03:44.716Z,13.20
2019-03-01T06:06:20.008Z,12.90
2019-03-01T06:09:16.769Z,12.10
2019-03-01T06:12:00.896Z,13.40
2019-03-01T06:14:59.181Z,13.63
2019-03-01T06:17:36.989Z,12.10
2019-03-01T06:20:18.596Z,11.90
2019-03-01T06:23:08.988Z,11.13
2019-03-01T06:25:50.191Z,9.83
2019-03-01T06:28:46.403Z,7.53
2019-03-01T06:31:31.156Z,6.53
2019-03-01T06:34:18.668Z,5.67
2019-03-01T06:36:51.188Z,4.97
2019-03-01T06:39:27.990Z,5.33
2019-03-01T06:42:09.774Z,4.73
2019-03-01T06:44:53.946Z,4.30
2019-03-01T06:47:45.428Z,4.27
2019-03-01T06:50:23.122Z,3.75
2019-03-01T06:52:53.550Z,4.00
2019-03-01T06:55:32.074Z,3.47
2019-03-01T06:58:02.242Z,3.43
2019-03-01T07:00:34.086Z,2.70
2019-03-01T07:03:03.918Z,3.10
2019-03-01T07:05:33.360Z,4.07
2019-03-01T07:08:02.892Z,3.90
2019-03-01T07:10:33.003Z,4.03
2019-03-01T07:13:04.150Z,4.13
2019-03-01T07:15:33.638Z,4.23
2019-03-01T07:18:03.285Z,3.73
2019-03-01T07:20:33.383Z,3.80
2019-03-01T07:23:03.916Z,4.70
2019-03-01T07:25:33.730Z,5.37
2019-03-01T07:28:03.832Z,6.00
2019-03-01T07:30:33.968Z,7.85
2019-03-01T07:33:04.188Z,8.97
2019-03-01T07:35:34.202Z,8.60
2019-03-01T07:38:04.328Z,9.10
2019-03-01T07:40:34.429Z,9.07
2019-03-01T07:43:04.641Z,9.27
2019-03-01T07:45:34.841Z,8.48
2019-03-01T07:48:04.971Z,8.03
2019-03-01T07:50:35.016Z,8.57
2019-03-01T07:53:05.271Z,7.00
2019-03-01T07:55:35.231Z,5.77
2019-03-01T07:58:05.346Z,4.93
2019-03-01T08:00:35.630Z,3.75
2019-03-01T08:03:05.766Z,3.98
2019-03-01T08:05:39.355Z,5.77
2019-03-01T08:08:07.020Z,5.87
2019-03-01T08:10:36.447Z,5.83
2019-03-01T08:13:06.330Z,6.58
2019-03-01T08:15:36.375Z,5.97
2019-03-01T08:18:08.160Z,6.37
2019-03-01T08:20:37.648Z,3.10
2019-03-01T08:23:07.132Z,2.27
2019-03-01T08:25:36.953Z,2.50
2019-03-01T08:28:07.051Z,2.00
2019-03-01T08:30:37.255Z,2.23
2019-03-01T08:33:07.948Z,2.42
2019-03-01T08:35:37.516Z,3.53
2019-03-01T08:38:07.626Z,4.03
2019-03-01T08:40:37.757Z,4.30
2019-03-01T08:43:11.723Z,3.20
2019-03-01T08:45:38.932Z,2.90
2019-03-01T08:48:08.287Z,2.53
2019-03-01T08:50:38.355Z,2.55
2019-03-01T08:53:11.379Z,2.58
2019-03-01T08:55:39.890Z,2.63
2019-03-01T08:58:09.384Z,2.50
2019-03-01T09:00:41.636Z,2.52
2019-03-01T09:03:33.816Z,2.43
2019-03-01T09:06:03.406Z,2.37
2019-03-01T09:08:32.837Z,2.83
2019-03-01T09:11:05.569Z,2.40
2019-03-01T09:13:33.355Z,2.70
2019-03-01T09:16:03.362Z,2.20
2019-03-01T09:18:33.920Z,2.30
2019-03-01T09:21:05.883Z,2.10
2019-03-01T09:23:34.510Z,2.57
2019-03-01T09:26:04.132Z,2.53
2019-03-01T09:28:38.639Z,2.80
2019-03-01T09:31:04.999Z,2.30
2019-03-01T09:33:36.033Z,2.27
2019-03-01T09:36:08.215Z,2.73
2019-03-01T09:38:39.430Z,2.70
2019-03-01T09:41:08.711Z,2.10
2019-03-01T09:43:38.127Z,2.10
2019-03-01T09:46:07.555Z,2.80
2019-03-01T09:48:37.001Z,2.33
2019-03-01T09:51:07.260Z,2.10
2019-03-01T09:53:37.783Z,2.47
2019-03-01T09:56:09.743Z,2.30
2019-03-01T09:58:38.267Z,2.43
2019-03-01T10:01:10.653Z,2.80
2019-03-01T10:03:40.181Z,2.47
2019-03-01T10:06:09.612Z,2.20
2019-03-01T10:08:39.051Z,2.67
2019-03-01T10:11:08.544Z,2.20
2019-03-01T10:13:38.594Z,2.20
2019-03-01T10:16:08.091Z,2.50
2019-03-01T10:18:37.521Z,2.20
2019-03-01T10:21:06.948Z,2.27
2019-03-01T10:23:36.401Z,2.13
2019-03-01T10:26:05.883Z,2.60
2019-03-01T10:28:35.318Z,2.40
2019-03-01T10:31:05.498Z,2.07
2019-03-01T10:33:34.871Z,2.47
2019-03-01T10:36:04.437Z,2.33
2019-03-01T10:38:33.947Z,2.77
2019-03-01T10:41:03.374Z,2.63
2019-03-01T10:43:32.816Z,2.17
2019-03-01T10:46:02.235Z,2.60
2019-03-01T10:48:32.791Z,3.30
2019-03-01T10:51:02.342Z,2.30
2019-03-01T10:53:31.799Z,2.80
2019-03-01T10:56:02.388Z,2.70
2019-03-01T10:58:31.808Z,2.90
2019-03-01T11:01:01.301Z,2.83
2019-03-01T11:03:31.915Z,2.53
2019-03-01T11:06:01.347Z,2.80
2019-03-01T11:08:30.761Z,3.43
2019-03-01T11:11:00.189Z,2.77
2019-03-01T11:13:29.539Z,2.80
2019-03-01T11:15:58.977Z,2.93
2019-03-01T11:18:28.397Z,3.07
2019-03-01T11:20:57.763Z,2.40
2019-03-01T11:23:27.187Z,2.83
2019-03-01T11:25:56.561Z,2.70
2019-03-01T11:28:25.977Z,3.00
2019-03-01T11:30:55.529Z,2.50
2019-03-01T11:33:24.946Z,2.50
2019-03-01T11:35:54.445Z,2.60
2019-03-01T11:38:23.875Z,3.10
2019-03-01T11:40:53.546Z,3.20
2019-03-01T11:43:24.792Z,3.30
2019-03-01T11:45:54.373Z,3.10
2019-03-01T11:48:23.815Z,3.00
2019-03-01T11:50:53.373Z,3.23
2019-03-01T11:53:22.813Z,3.00
2019-03-01T11:55:53.237Z,3.33
2019-03-01T11:58:23.756Z,2.67
2019-03-01T12:00:53.179Z,3.20
2019-03-01T12:03:22.596Z,3.17
2019-03-01T12:05:51.985Z,3.40
2019-03-01T12:08:21.469Z,3.07
2019-03-01T12:10:50.913Z,3.17
2019-03-01T12:13:20.377Z,3.17
2019-03-01T12:15:49.796Z,3.00
2019-03-01T12:18:19.606Z,2.80
2019-03-01T12:20:49.786Z,3.27
2019-03-01T12:23:19.905Z,3.20
2019-03-01T12:25:50.028Z,3.50
2019-03-01T12:28:20.143Z,3.47
2019-03-01T12:30:50.354Z,2.80
2019-03-01T12:33:20.482Z,4.27
2019-03-01T12:35:50.681Z,3.40
2019-03-01T12:38:20.729Z,3.47
2019-03-01T12:40:50.838Z,3.37
2019-03-01T12:43:20.963Z,3.10
2019-03-01T12:45:51.310Z,3.13
2019-03-01T12:48:21.398Z,3.87
2019-03-01T12:50:51.490Z,3.47
2019-03-01T12:53:21.792Z,3.53
2019-03-01T12:55:51.831Z,3.70
2019-03-01T12:58:21.278Z,3.17
2019-03-01T13:00:50.641Z,3.57
2019-03-01T13:03:20.101Z,3.07
2019-03-01T13:05:50.082Z,3.67
2019-03-01T13:08:19.564Z,3.13
2019-03-01T13:10:48.925Z,3.70
2019-03-01T13:13:18.523Z,3.20
2019-03-01T13:15:49.528Z,2.97
2019-03-01T13:18:19.019Z,2.90
2019-03-01T13:20:48.440Z,3.77
2019-03-01T13:23:17.960Z,3.43
2019-03-01T13:25:48.457Z,3.70
2019-03-01T13:28:17.912Z,3.07
2019-03-01T13:30:47.351Z,4.27
2019-03-01T13:33:16.788Z,3.47
2019-03-01T13:35:46.242Z,3.57
2019-03-01T13:38:15.689Z,3.30
2019-03-01T13:40:45.124Z,3.20
2019-03-01T13:43:14.648Z,3.70
2019-03-01T13:45:47.387Z,3.83
2019-03-01T13:48:15.735Z,3.70
2019-03-01T13:50:46.194Z,3.77
2019-03-01T13:53:15.661Z,4.00
2019-03-01T13:55:45.173Z,4.30
2019-03-01T13:58:14.610Z,3.20
2019-03-01T14:00:45.622Z,4.67
2019-03-01T14:03:15.125Z,3.73
2019-03-01T14:05:44.734Z,4.05
2019-03-01T14:08:14.166Z,3.47
2019-03-01T14:10:43.528Z,3.20
2019-03-01T14:13:14.494Z,3.30
2019-03-01T14:15:44.136Z,3.83
2019-03-01T14:18:13.580Z,3.93
2019-03-01T14:20:43.083Z,3.30
2019-03-01T14:23:12.514Z,3.50
2019-03-01T14:25:42.349Z,3.77
2019-03-01T14:28:11.904Z,3.40
2019-03-01T14:30:41.334Z,3.50
2019-03-01T14:33:10.792Z,3.57
2019-03-01T14:35:40.300Z,3.13
2019-03-01T14:38:09.768Z,3.90
2019-03-01T14:40:39.194Z,3.10
2019-03-01T14:43:08.718Z,3.17
2019-03-01T14:45:38.144Z,4.00
2019-03-01T14:48:08.874Z,3.87
2019-03-01T14:50:39.903Z,3.53
2019-03-01T14:53:09.376Z,4.17
2019-03-01T14:55:50.462Z,3.30
2019-03-01T14:58:31.832Z,3.53
2019-03-01T15:01:04.410Z,4.10
2019-03-01T15:03:35.772Z,3.60
2019-03-01T15:06:06.139Z,3.67
2019-03-01T15:08:36.403Z,4.13
2019-03-01T15:11:09.155Z,3.93
2019-03-01T15:13:38.780Z,4.10
2019-03-01T15:16:08.965Z,3.57
2019-03-01T15:18:40.174Z,4.10
2019-03-01T15:21:11.712Z,3.40
2019-03-01T15:23:41.337Z,3.43
2019-03-01T15:26:10.934Z,4.83
2019-03-01T15:28:46.124Z,4.20
2019-03-01T15:31:15.704Z,3.83
2019-03-01T15:33:47.016Z,4.07
2019-03-01T15:36:17.867Z,3.73
2019-03-01T15:38:47.426Z,3.47
2019-03-01T15:41:16.970Z,4.40
2019-03-01T15:43:46.407Z,3.83
2019-03-01T15:46:17.883Z,4.70
2019-03-01T15:48:46.980Z,4.20
2019-03-01T15:51:16.582Z,3.93
2019-03-01T15:53:47.083Z,3.80
2019-03-01T15:56:16.696Z,3.37
2019-03-01T15:58:46.660Z,4.53
2019-03-01T16:01:16.306Z,3.87
2019-03-01T16:03:45.814Z,4.20
2019-03-01T16:06:19.256Z,3.43
2019-03-01T16:08:48.115Z,4.53
2019-03-01T16:11:17.817Z,3.93
2019-03-01T16:13:49.096Z,4.00
2019-03-01T16:16:18.396Z,4.23
2019-03-01T16:18:47.893Z,3.73
2019-03-01T16:21:17.391Z,4.03
2019-03-01T16:23:46.871Z,3.97
2019-03-01T16:26:16.483Z,3.43
2019-03-01T16:28:46.073Z,4.23
2019-03-01T16:31:15.528Z,4.30
2019-03-01T16:33:45.030Z,3.97
2019-03-01T16:36:16.192Z,4.63
2019-03-01T16:38:48.732Z,4.90
2019-03-01T16:41:16.803Z,4.17
2019-03-01T16:43:48.529Z,6.53
2019-03-01T16:46:18.005Z,4.03
2019-03-01T16:48:48.803Z,4.27
2019-03-01T16:51:19.515Z,4.70
2019-03-01T16:53:49.091Z,4.83
2019-03-01T16:56:19.713Z,4.90
2019-03-01T16:58:49.164Z,4.57
2019-03-01T17:01:18.719Z,5.00
2019-03-01T17:03:49.578Z,4.30
2019-03-01T17:06:22.048Z,4.73
2019-03-01T17:08:53.163Z,9.80
2019-03-01T17:11:22.757Z,6.07
2019-03-01T17:13:52.287Z,7.23
2019-03-01T17:16:23.761Z,4.77
2019-03-01T17:18:52.885Z,4.03
2019-03-01T17:21:22.496Z,5.63
2019-03-01T17:23:51.919Z,6.90
2019-03-01T17:26:21.539Z,5.87
2019-03-01T17:28:51.450Z,4.93
2019-03-01T17:31:23.246Z,3.93
2019-03-01T17:33:53.064Z,4.30
2019-03-01T17:36:22.599Z,13.57
2019-03-01T17:38:52.030Z,10.87
2019-03-01T17:41:23.112Z,7.10
2019-03-01T17:43:52.549Z,5.67
2019-03-01T17:46:21.999Z,25.47
2019-03-01T17:48:54.167Z,14.67
2019-03-01T17:51:22.504Z,7.43
2019-03-01T17:53:51.933Z,7.10
2019-03-01T17:56:21.909Z,12.47
2019-03-01T17:58:52.127Z,6.80
2019-03-01T18:01:21.567Z,7.20
2019-03-01T18:03:51.087Z,5.30
2019-03-01T18:06:20.551Z,4.20
2019-03-01T18:08:49.985Z,5.73
2019-03-01T18:11:19.665Z,4.30
2019-03-01T18:13:49.387Z,5.50
2019-03-01T18:16:22.093Z,7.07
2019-03-01T18:18:52.998Z,4.13
2019-03-01T18:21:22.584Z,6.20
2019-03-01T18:23:52.039Z,4.80
2019-03-01T18:26:22.996Z,4.90
2019-03-01T18:28:52.690Z,5.37
2019-03-01T18:31:22.117Z,4.70
2019-03-01T18:33:53.655Z,5.33
2019-03-01T18:36:22.715Z,5.47
2019-03-01T18:38:52.236Z,4.43
2019-03-01T18:41:24.058Z,4.87
2019-03-01T18:43:53.999Z,3.67
2019-03-01T18:46:23.417Z,3.97
2019-03-01T18:48:53.005Z,4.00
2019-03-01T18:51:22.465Z,3.93
2019-03-01T18:53:52.062Z,4.13
2019-03-01T18:56:24.878Z,3.97
2019-03-01T18:58:52.662Z,3.37
2019-03-01T19:01:22.555Z,3.80
2019-03-01T19:03:52.151Z,3.70
2019-03-01T19:06:21.652Z,4.20
2019-03-01T19:08:51.265Z,4.83
2019-03-01T19:11:20.838Z,3.70
2019-03-01T19:13:51.450Z,4.10
2019-03-01T19:16:21.093Z,4.00
2019-03-01T19:18:51.241Z,4.17
2019-03-01T19:21:21.742Z,4.90
2019-03-01T19:23:51.199Z,4.50
2019-03-01T19:26:20.713Z,3.83
2019-03-01T19:28:50.180Z,4.97
2019-03-01T19:31:21.731Z,5.77
2019-03-01T19:33:52.514Z,7.67
2019-03-01T19:36:22.029Z,4.30
2019-03-01T19:38:51.641Z,5.40
2019-03-01T19:41:22.886Z,6.30
2019-03-01T19:43:57.412Z,3.47
2019-03-01T19:46:26.409Z,2.67
2019-03-01T19:48:55.442Z,4.23
2019-03-01T19:51:25.038Z,3.80
2019-03-01T19:53:57.332Z,3.13
2019-03-01T19:56:27.472Z,3.30
2019-03-01T19:58:56.920Z,3.63
2019-03-01T20:01:26.725Z,3.63
2019-03-01T20:03:57.971Z,2.97
2019-03-01T20:06:27.414Z,3.57
2019-03-01T20:08:56.885Z,4.80
2019-03-01T20:11:26.655Z,3.93
2019-03-01T20:13:59.610Z,4.10
2019-03-01T20:16:29.215Z,3.47
2019-03-01T20:19:01.057Z,3.83
2019-03-01T20:21:30.581Z,3.70
2019-03-01T20:24:01.821Z,3.60
2019-03-01T20:26:34.354Z,3.50
2019-03-01T20:29:03.876Z,3.00
2019-03-01T20:31:36.753Z,3.00
2019-03-01T20:34:07.225Z,3.93
2019-03-01T20:36:36.737Z,4.00
2019-03-01T20:39:07.460Z,3.80
2019-03-01T20:41:46.142Z,3.53
2019-03-01T20:44:14.710Z,4.20
2019-03-01T20:46:45.183Z,3.60
2019-03-01T20:49:14.733Z,3.40
2019-03-01T20:51:46.779Z,4.30
2019-03-01T20:54:17.544Z,3.93
2019-03-01T20:56:48.026Z,3.40
2019-03-01T20:59:19.500Z,3.53
2019-03-01T21:01:50.081Z,3.13
2019-03-01T21:04:21.074Z,4.03
2019-03-01T21:06:51.464Z,3.67
2019-03-01T21:09:20.958Z,3.50
2019-03-01T21:11:50.465Z,4.07
2019-03-01T21:14:19.924Z,3.27
2019-03-01T21:16:49.968Z,4.30
2019-03-01T21:19:22.228Z,2.90
2019-03-01T21:21:53.228Z,3.87
2019-03-01T21:24:22.912Z,3.90
2019-03-01T21:26:53.851Z,3.73
2019-03-01T21:29:24.784Z,3.90
2019-03-01T21:31:54.506Z,3.40
2019-03-01T21:34:24.238Z,3.37
2019-03-01T21:36:53.721Z,4.57
2019-03-01T21:39:24.049Z,3.87
2019-03-01T21:41:57.153Z,4.13
2019-03-01T21:44:26.666Z,4.17
2019-03-01T21:46:56.195Z,4.17
2019-03-01T21:49:25.650Z,4.90
2019-03-01T21:51:57.111Z,4.10
2019-03-01T21:54:28.296Z,3.40
2019-03-01T21:56:57.816Z,3.60
2019-03-01T21:59:28.788Z,3.37
2019-03-01T22:01:59.162Z,4.27
2019-03-01T22:04:29.447Z,3.87
2019-03-01T22:07:02.870Z,3.40
2019-03-01T22:09:32.296Z,3.13
2019-03-01T22:12:01.813Z,3.50
2019-03-01T22:14:31.327Z,3.87
2019-03-01T22:17:00.776Z,3.00
2019-03-01T22:19:30.528Z,3.70
2019-03-01T22:22:04.189Z,3.90
2019-03-01T22:24:34.227Z,3.43
2019-03-01T22:27:04.688Z,3.00
2019-03-01T22:29:34.123Z,3.50
2019-03-01T22:32:03.656Z,3.40
2019-03-01T22:34:33.085Z,3.43
2019-03-01T22:37:03.517Z,3.50
2019-03-01T22:39:32.971Z,3.13
2019-03-01T22:42:02.498Z,3.73
2019-03-01T22:44:33.375Z,3.43
2019-03-01T22:47:03.016Z,3.93
2019-03-01T22:49:32.753Z,3.50
2019-03-01T22:52:03.269Z,2.80
2019-03-01T22:54:32.698Z,2.80
2019-03-01T22:57:02.151Z,3.23
2019-03-01T22:59:32.249Z,3.70
2019-03-01T23:02:04.402Z,2.90
2019-03-01T23:04:34.773Z,2.63
2019-03-01T23:07:04.302Z,3.30
2019-03-01T23:09:33.752Z,2.87
2019-03-01T23:12:04.744Z,3.07
2019-03-01T23:14:34.501Z,2.37
2019-03-01T23:17:04.710Z,2.90
2019-03-01T23:19:34.152Z,3.20
2019-03-01T23:22:03.524Z,2.50
2019-03-01T23:24:35.026Z,2.60
2019-03-01T23:27:04.498Z,2.73
2019-03-01T23:29:34.037Z,2.83
2019-03-01T23:32:06.843Z,2.83
2019-03-01T23:34:38.966Z,3.10
2019-03-01T23:37:07.354Z,2.60
2019-03-01T23:39:36.798Z,2.80
2019-03-01T23:42:06.299Z,2.83
2019-03-01T23:44:38.661Z,3.00
2019-03-01T23:47:06.859Z,3.00
2019-03-01T23:49:36.217Z,3.30
2019-03-01T23:52:05.667Z,2.97
2019-03-01T23:54:35.092Z,2.83
2019-03-01T23:57:05.713Z,2.67
2019-03-01T23:59:37.316Z,2.83
